sensor_id;sensor_type;location;lat;lon;timestamp;temperature;humidity
63317;DHT22;49822;41.468;13.560;2024-02-26T00:00:01;9.00;90.70
63317;DHT22;49822;41.468;13.560;2024-02-26T00:02:30;9.10;90.80
63317;DHT22;49822;41.468;13.560;2024-02-26T00:04:57;9.10;90.20
63317;DHT22;49822;41.468;13.560;2024-02-26T00:07:24;9.20;90.00
63317;DHT22;49822;41.468;13.560;2024-02-26T00:09:50;9.20;89.50
63317;DHT22;49822;41.468;13.560;2024-02-26T00:12:16;9.10;88.90
63317;DHT22;49822;41.468;13.560;2024-02-26T00:14:42;9.00;89.40
63317;DHT22;49822;41.468;13.560;2024-02-26T00:17:08;8.60;88.10
63317;DHT22;49822;41.468;13.560;2024-02-26T00:19:35;8.50;89.50
63317;DHT22;49822;41.468;13.560;2024-02-26T00:22:01;8.70;90.40
63317;DHT22;49822;41.468;13.560;2024-02-26T00:24:27;8.70;90.70
63317;DHT22;49822;41.468;13.560;2024-02-26T00:26:54;8.80;90.60
63317;DHT22;49822;41.468;13.560;2024-02-26T00:29:21;8.80;90.10
63317;DHT22;49822;41.468;13.560;2024-02-26T00:31:47;8.90;90.00
63317;DHT22;49822;41.468;13.560;2024-02-26T00:34:13;8.90;89.40
63317;DHT22;49822;41.468;13.560;2024-02-26T00:36:39;8.60;88.20
63317;DHT22;49822;41.468;13.560;2024-02-26T00:39:06;8.40;89.20
63317;DHT22;49822;41.468;13.560;2024-02-26T00:41:32;8.60;89.80
63317;DHT22;49822;41.468;13.560;2024-02-26T00:43:58;8.70;90.00
63317;DHT22;49822;41.468;13.560;2024-02-26T00:46:25;8.80;90.20
63317;DHT22;49822;41.468;13.560;2024-02-26T00:48:51;8.90;90.30
63317;DHT22;49822;41.468;13.560;2024-02-26T00:51:17;8.80;90.00
63317;DHT22;49822;41.468;13.560;2024-02-26T00:53:43;8.90;89.80
63317;DHT22;49822;41.468;13.560;2024-02-26T00:56:09;8.90;89.20
63317;DHT22;49822;41.468;13.560;2024-02-26T00:58:36;8.80;89.20
63317;DHT22;49822;41.468;13.560;2024-02-26T01:01:03;8.70;89.30
63317;DHT22;49822;41.468;13.560;2024-02-26T01:03:29;8.60;89.20
63317;DHT22;49822;41.468;13.560;2024-02-26T01:05:56;8.60;89.40
63317;DHT22;49822;41.468;13.560;2024-02-26T01:08:22;8.50;89.50
63317;DHT22;49822;41.468;13.560;2024-02-26T01:10:48;8.30;89.20
63317;DHT22;49822;41.468;13.560;2024-02-26T01:13:14;8.20;89.90
63317;DHT22;49822;41.468;13.560;2024-02-26T01:15:43;8.10;89.90
63317;DHT22;49822;41.468;13.560;2024-02-26T01:18:12;7.90;90.10
63317;DHT22;49822;41.468;13.560;2024-02-26T01:20:38;7.60;90.20
63317;DHT22;49822;41.468;13.560;2024-02-26T01:23:04;7.70;91.40
63317;DHT22;49822;41.468;13.560;2024-02-26T01:25:30;7.80;92.10
63317;DHT22;49822;41.468;13.560;2024-02-26T01:27:56;7.70;92.00
63317;DHT22;49822;41.468;13.560;2024-02-26T01:30:23;8.00;92.50
63317;DHT22;49822;41.468;13.560;2024-02-26T01:32:48;8.10;92.80
63317;DHT22;49822;41.468;13.560;2024-02-26T01:35:14;8.20;92.60
63317;DHT22;49822;41.468;13.560;2024-02-26T01:37:41;8.20;91.00
63317;DHT22;49822;41.468;13.560;2024-02-26T01:40:08;8.10;90.40
63317;DHT22;49822;41.468;13.560;2024-02-26T01:42:37;8.20;90.20
63317;DHT22;49822;41.468;13.560;2024-02-26T01:45:05;8.20;90.10
63317;DHT22;49822;41.468;13.560;2024-02-26T01:47:33;8.00;89.50
63317;DHT22;49822;41.468;13.560;2024-02-26T01:49:59;8.20;89.60
63317;DHT22;49822;41.468;13.560;2024-02-26T01:52:27;7.90;89.40
63317;DHT22;49822;41.468;13.560;2024-02-26T01:54:53;7.80;90.80
63317;DHT22;49822;41.468;13.560;2024-02-26T01:57:19;7.50;91.20
63317;DHT22;49822;41.468;13.560;2024-02-26T01:59:46;7.50;92.20
63317;DHT22;49822;41.468;13.560;2024-02-26T02:02:13;7.50;92.90
63317;DHT22;49822;41.468;13.560;2024-02-26T02:04:40;7.70;93.30
63317;DHT22;49822;41.468;13.560;2024-02-26T02:07:07;7.70;93.50
63317;DHT22;49822;41.468;13.560;2024-02-26T02:09:33;7.90;92.80
63317;DHT22;49822;41.468;13.560;2024-02-26T02:12:00;7.90;92.60
63317;DHT22;49822;41.468;13.560;2024-02-26T02:14:26;8.00;92.10
63317;DHT22;49822;41.468;13.560;2024-02-26T02:16:52;7.90;90.10
63317;DHT22;49822;41.468;13.560;2024-02-26T02:19:20;7.40;89.20
63317;DHT22;49822;41.468;13.560;2024-02-26T02:21:46;7.40;90.10
63317;DHT22;49822;41.468;13.560;2024-02-26T02:24:12;7.40;91.00
63317;DHT22;49822;41.468;13.560;2024-02-26T02:26:39;7.30;92.00
63317;DHT22;49822;41.468;13.560;2024-02-26T02:29:06;7.40;92.80
63317;DHT22;49822;41.468;13.560;2024-02-26T02:31:33;7.40;93.00
63317;DHT22;49822;41.468;13.560;2024-02-26T02:33:59;7.50;93.10
63317;DHT22;49822;41.468;13.560;2024-02-26T02:36:26;7.60;93.10
63317;DHT22;49822;41.468;13.560;2024-02-26T02:38:52;7.70;92.80
63317;DHT22;49822;41.468;13.560;2024-02-26T02:41:20;7.50;91.10
63317;DHT22;49822;41.468;13.560;2024-02-26T02:43:47;7.60;91.40
63317;DHT22;49822;41.468;13.560;2024-02-26T02:46:13;7.60;91.90
63317;DHT22;49822;41.468;13.560;2024-02-26T02:48:41;7.80;92.00
63317;DHT22;49822;41.468;13.560;2024-02-26T02:51:07;7.90;92.10
63317;DHT22;49822;41.468;13.560;2024-02-26T02:53:33;7.90;91.30
63317;DHT22;49822;41.468;13.560;2024-02-26T02:56:00;7.90;90.60
63317;DHT22;49822;41.468;13.560;2024-02-26T02:58:26;7.60;89.70
63317;DHT22;49822;41.468;13.560;2024-02-26T03:00:52;7.70;90.00
63317;DHT22;49822;41.468;13.560;2024-02-26T03:03:21;7.80;90.10
63317;DHT22;49822;41.468;13.560;2024-02-26T03:05:50;7.50;88.90
63317;DHT22;49822;41.468;13.560;2024-02-26T03:08:16;7.20;89.20
63317;DHT22;49822;41.468;13.560;2024-02-26T03:10:42;7.00;90.50
63317;DHT22;49822;41.468;13.560;2024-02-26T03:13:09;7.10;91.70
63317;DHT22;49822;41.468;13.560;2024-02-26T03:15:37;7.20;92.60
63317;DHT22;49822;41.468;13.560;2024-02-26T03:18:05;7.40;93.00
63317;DHT22;49822;41.468;13.560;2024-02-26T03:20:32;7.50;93.00
63317;DHT22;49822;41.468;13.560;2024-02-26T03:22:58;7.30;92.60
63317;DHT22;49822;41.468;13.560;2024-02-26T03:25:25;7.20;91.20
63317;DHT22;49822;41.468;13.560;2024-02-26T03:27:51;7.30;91.00
63317;DHT22;49822;41.468;13.560;2024-02-26T03:30:17;7.20;91.50
63317;DHT22;49822;41.468;13.560;2024-02-26T03:32:43;7.40;91.40
63317;DHT22;49822;41.468;13.560;2024-02-26T03:35:10;7.30;91.20
63317;DHT22;49822;41.468;13.560;2024-02-26T03:37:36;7.50;90.90
63317;DHT22;49822;41.468;13.560;2024-02-26T03:40:02;7.40;91.10
63317;DHT22;49822;41.468;13.560;2024-02-26T03:42:29;7.40;91.60
63317;DHT22;49822;41.468;13.560;2024-02-26T03:44:55;7.30;90.50
63317;DHT22;49822;41.468;13.560;2024-02-26T03:47:21;7.30;90.90
63317;DHT22;49822;41.468;13.560;2024-02-26T03:49:47;7.30;91.40
63317;DHT22;49822;41.468;13.560;2024-02-26T03:52:14;7.40;91.60
63317;DHT22;49822;41.468;13.560;2024-02-26T03:54:40;7.50;90.80
63317;DHT22;49822;41.468;13.560;2024-02-26T03:57:06;7.40;90.60
63317;DHT22;49822;41.468;13.560;2024-02-26T03:59:32;7.60;91.20
63317;DHT22;49822;41.468;13.560;2024-02-26T04:01:59;7.30;90.70
63317;DHT22;49822;41.468;13.560;2024-02-26T04:04:27;7.50;89.70
63317;DHT22;49822;41.468;13.560;2024-02-26T04:06:53;7.40;89.20
63317;DHT22;49822;41.468;13.560;2024-02-26T04:09:19;7.30;88.90
63317;DHT22;49822;41.468;13.560;2024-02-26T04:11:45;7.10;88.20
63317;DHT22;49822;41.468;13.560;2024-02-26T04:14:12;7.00;89.20
63317;DHT22;49822;41.468;13.560;2024-02-26T04:16:38;7.00;89.80
63317;DHT22;49822;41.468;13.560;2024-02-26T04:19:05;7.10;90.10
63317;DHT22;49822;41.468;13.560;2024-02-26T04:21:32;6.90;90.40
63317;DHT22;49822;41.468;13.560;2024-02-26T04:23:58;7.10;90.60
63317;DHT22;49822;41.468;13.560;2024-02-26T04:26:27;7.00;90.10
63317;DHT22;49822;41.468;13.560;2024-02-26T04:28:54;6.70;88.90
63317;DHT22;49822;41.468;13.560;2024-02-26T04:31:20;6.50;89.60
63317;DHT22;49822;41.468;13.560;2024-02-26T04:33:46;6.60;90.10
63317;DHT22;49822;41.468;13.560;2024-02-26T04:36:14;6.50;90.70
63317;DHT22;49822;41.468;13.560;2024-02-26T04:38:43;6.70;91.90
63317;DHT22;49822;41.468;13.560;2024-02-26T04:41:10;6.70;92.20
63317;DHT22;49822;41.468;13.560;2024-02-26T04:43:37;6.60;92.10
63317;DHT22;49822;41.468;13.560;2024-02-26T04:46:08;6.90;91.90
63317;DHT22;49822;41.468;13.560;2024-02-26T04:48:34;7.00;91.60
63317;DHT22;49822;41.468;13.560;2024-02-26T04:51:01;6.80;90.40
63317;DHT22;49822;41.468;13.560;2024-02-26T04:53:27;6.80;90.50
63317;DHT22;49822;41.468;13.560;2024-02-26T04:55:54;6.90;90.70
63317;DHT22;49822;41.468;13.560;2024-02-26T04:58:20;6.80;90.50
63317;DHT22;49822;41.468;13.560;2024-02-26T05:00:47;6.90;90.70
63317;DHT22;49822;41.468;13.560;2024-02-26T05:03:13;6.80;90.00
63317;DHT22;49822;41.468;13.560;2024-02-26T05:05:44;6.70;90.40
63317;DHT22;49822;41.468;13.560;2024-02-26T05:08:11;6.50;90.50
63317;DHT22;49822;41.468;13.560;2024-02-26T05:10:37;6.60;91.10
63317;DHT22;49822;41.468;13.560;2024-02-26T05:13:07;6.70;91.50
63317;DHT22;49822;41.468;13.560;2024-02-26T05:15:34;6.50;89.90
63317;DHT22;49822;41.468;13.560;2024-02-26T05:18:00;6.40;90.10
63317;DHT22;49822;41.468;13.560;2024-02-26T05:20:26;6.20;90.50
63317;DHT22;49822;41.468;13.560;2024-02-26T05:22:52;6.20;90.80
63317;DHT22;49822;41.468;13.560;2024-02-26T05:25:18;6.10;91.80
63317;DHT22;49822;41.468;13.560;2024-02-26T05:27:44;6.30;92.20
63317;DHT22;49822;41.468;13.560;2024-02-26T05:30:11;6.50;92.30
63317;DHT22;49822;41.468;13.560;2024-02-26T05:32:37;6.30;91.70
63317;DHT22;49822;41.468;13.560;2024-02-26T05:35:05;6.50;91.40
63317;DHT22;49822;41.468;13.560;2024-02-26T05:37:32;6.50;91.10
63317;DHT22;49822;41.468;13.560;2024-02-26T05:39:59;6.60;90.80
63317;DHT22;49822;41.468;13.560;2024-02-26T05:42:25;6.60;91.00
63317;DHT22;49822;41.468;13.560;2024-02-26T05:44:51;6.70;90.40
63317;DHT22;49822;41.468;13.560;2024-02-26T05:47:18;6.50;89.80
63317;DHT22;49822;41.468;13.560;2024-02-26T05:49:44;6.40;89.70
63317;DHT22;49822;41.468;13.560;2024-02-26T05:52:11;6.20;89.60
63317;DHT22;49822;41.468;13.560;2024-02-26T05:54:37;6.20;90.30
63317;DHT22;49822;41.468;13.560;2024-02-26T05:57:03;6.10;90.30
63317;DHT22;49822;41.468;13.560;2024-02-26T05:59:29;6.10;91.00
63317;DHT22;49822;41.468;13.560;2024-02-26T06:01:55;6.20;91.80
63317;DHT22;49822;41.468;13.560;2024-02-26T06:04:21;6.40;92.30
63317;DHT22;49822;41.468;13.560;2024-02-26T06:06:48;6.30;91.10
63317;DHT22;49822;41.468;13.560;2024-02-26T06:09:15;6.10;91.30
63317;DHT22;49822;41.468;13.560;2024-02-26T06:11:41;6.20;92.30
63317;DHT22;49822;41.468;13.560;2024-02-26T06:14:07;6.30;92.90
63317;DHT22;49822;41.468;13.560;2024-02-26T06:16:33;6.40;93.40
63317;DHT22;49822;41.468;13.560;2024-02-26T06:18:59;6.60;93.30
63317;DHT22;49822;41.468;13.560;2024-02-26T06:21:26;6.70;93.10
63317;DHT22;49822;41.468;13.560;2024-02-26T06:23:52;6.80;92.60
63317;DHT22;49822;41.468;13.560;2024-02-26T06:26:18;6.90;92.20
63317;DHT22;49822;41.468;13.560;2024-02-26T06:28:44;7.00;91.40
63317;DHT22;49822;41.468;13.560;2024-02-26T06:31:10;7.10;91.10
63317;DHT22;49822;41.468;13.560;2024-02-26T06:33:36;7.00;90.70
63317;DHT22;49822;41.468;13.560;2024-02-26T06:36:02;7.20;90.70
63317;DHT22;49822;41.468;13.560;2024-02-26T06:38:29;7.40;90.80
63317;DHT22;49822;41.468;13.560;2024-02-26T06:40:55;7.30;90.80
63317;DHT22;49822;41.468;13.560;2024-02-26T06:43:22;7.40;91.00
63317;DHT22;49822;41.468;13.560;2024-02-26T06:45:49;7.50;91.00
63317;DHT22;49822;41.468;13.560;2024-02-26T06:48:16;7.70;90.90
63317;DHT22;49822;41.468;13.560;2024-02-26T06:50:42;7.70;91.00
63317;DHT22;49822;41.468;13.560;2024-02-26T06:53:08;7.80;90.90
63317;DHT22;49822;41.468;13.560;2024-02-26T06:55:34;8.00;90.80
63317;DHT22;49822;41.468;13.560;2024-02-26T06:58:00;7.90;90.70
63317;DHT22;49822;41.468;13.560;2024-02-26T07:00:26;8.00;90.60
63317;DHT22;49822;41.468;13.560;2024-02-26T07:02:52;8.20;90.40
63317;DHT22;49822;41.468;13.560;2024-02-26T07:05:18;8.10;90.40
63317;DHT22;49822;41.468;13.560;2024-02-26T07:07:44;8.40;90.40
63317;DHT22;49822;41.468;13.560;2024-02-26T07:10:11;8.50;90.00
63317;DHT22;49822;41.468;13.560;2024-02-26T07:12:38;8.60;89.80
63317;DHT22;49822;41.468;13.560;2024-02-26T07:15:06;8.60;89.90
63317;DHT22;49822;41.468;13.560;2024-02-26T07:17:34;8.70;90.00
63317;DHT22;49822;41.468;13.560;2024-02-26T07:20:01;8.90;89.80
63317;DHT22;49822;41.468;13.560;2024-02-26T07:22:30;8.90;89.70
63317;DHT22;49822;41.468;13.560;2024-02-26T07:24:57;9.10;89.70
63317;DHT22;49822;41.468;13.560;2024-02-26T07:27:24;9.30;89.70
63317;DHT22;49822;41.468;13.560;2024-02-26T07:29:50;9.40;89.60
63317;DHT22;49822;41.468;13.560;2024-02-26T07:32:16;9.50;89.10
63317;DHT22;49822;41.468;13.560;2024-02-26T07:34:42;9.70;89.00
63317;DHT22;49822;41.468;13.560;2024-02-26T07:37:11;9.80;89.00
63317;DHT22;49822;41.468;13.560;2024-02-26T07:39:37;10.00;88.90
63317;DHT22;49822;41.468;13.560;2024-02-26T07:42:03;10.00;88.90
63317;DHT22;49822;41.468;13.560;2024-02-26T07:44:30;10.20;88.80
63317;DHT22;49822;41.468;13.560;2024-02-26T07:46:56;10.30;88.70
63317;DHT22;49822;41.468;13.560;2024-02-26T07:49:22;10.40;88.60
63317;DHT22;49822;41.468;13.560;2024-02-26T07:51:48;10.50;88.20
63317;DHT22;49822;41.468;13.560;2024-02-26T07:54:15;10.60;87.80
63317;DHT22;49822;41.468;13.560;2024-02-26T07:56:42;10.70;87.70
63317;DHT22;49822;41.468;13.560;2024-02-26T07:59:15;10.70;87.80
63317;DHT22;49822;41.468;13.560;2024-02-26T08:01:53;10.70;87.70
63317;DHT22;49822;41.468;13.560;2024-02-26T08:04:30;10.80;87.60
63317;DHT22;49822;41.468;13.560;2024-02-26T08:07:01;10.90;87.80
63317;DHT22;49822;41.468;13.560;2024-02-26T08:09:28;10.90;87.60
63317;DHT22;49822;41.468;13.560;2024-02-26T08:11:54;10.90;87.50
63317;DHT22;49822;41.468;13.560;2024-02-26T08:14:21;10.90;87.30
63317;DHT22;49822;41.468;13.560;2024-02-26T08:16:47;11.10;87.40
63317;DHT22;49822;41.468;13.560;2024-02-26T08:19:13;11.10;87.30
63317;DHT22;49822;41.468;13.560;2024-02-26T08:21:41;11.10;87.60
63317;DHT22;49822;41.468;13.560;2024-02-26T08:24:07;11.20;87.60
63317;DHT22;49822;41.468;13.560;2024-02-26T08:26:33;11.30;87.70
63317;DHT22;49822;41.468;13.560;2024-02-26T08:28:59;11.50;87.70
63317;DHT22;49822;41.468;13.560;2024-02-26T08:31:25;11.50;87.50
63317;DHT22;49822;41.468;13.560;2024-02-26T08:33:53;11.60;87.40
63317;DHT22;49822;41.468;13.560;2024-02-26T08:36:19;11.60;87.50
63317;DHT22;49822;41.468;13.560;2024-02-26T08:38:46;11.70;87.10
63317;DHT22;49822;41.468;13.560;2024-02-26T08:41:12;11.70;87.00
63317;DHT22;49822;41.468;13.560;2024-02-26T08:43:38;11.70;86.60
63317;DHT22;49822;41.468;13.560;2024-02-26T08:46:08;11.90;86.50
63317;DHT22;49822;41.468;13.560;2024-02-26T08:48:35;11.80;86.20
63317;DHT22;49822;41.468;13.560;2024-02-26T08:51:05;11.90;86.10
63317;DHT22;49822;41.468;13.560;2024-02-26T08:53:32;11.90;85.70
63317;DHT22;49822;41.468;13.560;2024-02-26T08:55:58;12.10;86.00
63317;DHT22;49822;41.468;13.560;2024-02-26T08:58:25;12.20;85.70
63317;DHT22;49822;41.468;13.560;2024-02-26T09:00:51;12.30;85.40
63317;DHT22;49822;41.468;13.560;2024-02-26T09:03:18;12.60;85.10
63317;DHT22;49822;41.468;13.560;2024-02-26T09:05:45;12.90;84.60
63317;DHT22;49822;41.468;13.560;2024-02-26T09:08:11;13.10;84.20
63317;DHT22;49822;41.468;13.560;2024-02-26T09:10:38;13.30;84.30
63317;DHT22;49822;41.468;13.560;2024-02-26T09:13:05;13.40;83.70
63317;DHT22;49822;41.468;13.560;2024-02-26T09:15:31;13.60;83.40
63317;DHT22;49822;41.468;13.560;2024-02-26T09:17:57;13.60;82.80
63317;DHT22;49822;41.468;13.560;2024-02-26T09:20:23;13.70;82.80
63317;DHT22;49822;41.468;13.560;2024-02-26T09:22:50;13.80;82.70
63317;DHT22;49822;41.468;13.560;2024-02-26T09:25:17;14.00;82.80
63317;DHT22;49822;41.468;13.560;2024-02-26T09:27:44;14.00;82.20
63317;DHT22;49822;41.468;13.560;2024-02-26T09:30:13;14.10;82.60
63317;DHT22;49822;41.468;13.560;2024-02-26T09:32:40;14.40;82.90
63317;DHT22;49822;41.468;13.560;2024-02-26T09:35:08;14.60;82.70
63317;DHT22;49822;41.468;13.560;2024-02-26T09:37:34;14.70;82.50
63317;DHT22;49822;41.468;13.560;2024-02-26T09:40:04;15.00;82.40
63317;DHT22;49822;41.468;13.560;2024-02-26T09:42:38;15.10;82.10
63317;DHT22;49822;41.468;13.560;2024-02-26T09:45:11;15.40;81.80
63317;DHT22;49822;41.468;13.560;2024-02-26T09:47:38;15.60;79.10
63317;DHT22;49822;41.468;13.560;2024-02-26T09:50:07;15.80;79.00
63317;DHT22;49822;41.468;13.560;2024-02-26T09:52:37;15.90;79.20
63317;DHT22;49822;41.468;13.560;2024-02-26T09:55:05;16.10;79.30
63317;DHT22;49822;41.468;13.560;2024-02-26T09:57:36;16.40;79.10
63317;DHT22;49822;41.468;13.560;2024-02-26T10:00:03;16.70;78.80
63317;DHT22;49822;41.468;13.560;2024-02-26T10:02:35;16.80;78.60
63317;DHT22;49822;41.468;13.560;2024-02-26T10:05:03;16.90;78.10
63317;DHT22;49822;41.468;13.560;2024-02-26T10:07:32;17.00;77.60
63317;DHT22;49822;41.468;13.560;2024-02-26T10:09:58;17.10;76.90
63317;DHT22;49822;41.468;13.560;2024-02-26T10:12:26;17.30;77.60
63317;DHT22;49822;41.468;13.560;2024-02-26T10:14:54;17.50;77.50
63317;DHT22;49822;41.468;13.560;2024-02-26T10:17:20;17.60;76.00
63317;DHT22;49822;41.468;13.560;2024-02-26T10:19:47;17.90;76.40
63317;DHT22;49822;41.468;13.560;2024-02-26T10:22:13;18.10;75.50
63317;DHT22;49822;41.468;13.560;2024-02-26T10:24:39;18.20;74.70
63317;DHT22;49822;41.468;13.560;2024-02-26T10:27:05;18.50;74.00
63317;DHT22;49822;41.468;13.560;2024-02-26T10:29:31;18.70;74.30
63317;DHT22;49822;41.468;13.560;2024-02-26T10:31:57;18.90;73.20
63317;DHT22;49822;41.468;13.560;2024-02-26T10:34:24;18.70;73.10
63317;DHT22;49822;41.468;13.560;2024-02-26T10:36:51;18.80;73.10
63317;DHT22;49822;41.468;13.560;2024-02-26T10:39:17;18.90;73.10
63317;DHT22;49822;41.468;13.560;2024-02-26T10:41:44;19.00;73.80
63317;DHT22;49822;41.468;13.560;2024-02-26T10:44:12;19.20;73.70
63317;DHT22;49822;41.468;13.560;2024-02-26T10:46:40;19.30;72.80
63317;DHT22;49822;41.468;13.560;2024-02-26T10:49:15;19.50;72.90
63317;DHT22;49822;41.468;13.560;2024-02-26T10:51:44;19.80;72.50
63317;DHT22;49822;41.468;13.560;2024-02-26T10:54:15;19.70;71.90
63317;DHT22;49822;41.468;13.560;2024-02-26T10:56:42;19.90;72.50
63317;DHT22;49822;41.468;13.560;2024-02-26T10:59:12;19.70;71.80
63317;DHT22;49822;41.468;13.560;2024-02-26T11:01:39;19.50;72.20
63317;DHT22;49822;41.468;13.560;2024-02-26T11:04:08;19.40;74.00
63317;DHT22;49822;41.468;13.560;2024-02-26T11:06:35;19.10;74.10
63317;DHT22;49822;41.468;13.560;2024-02-26T11:09:02;18.90;74.90
63317;DHT22;49822;41.468;13.560;2024-02-26T11:11:32;18.80;75.10
63317;DHT22;49822;41.468;13.560;2024-02-26T11:14:01;18.70;75.60
63317;DHT22;49822;41.468;13.560;2024-02-26T11:16:30;18.70;75.30
63317;DHT22;49822;41.468;13.560;2024-02-26T11:18:57;18.60;74.10
63317;DHT22;49822;41.468;13.560;2024-02-26T11:21:25;18.00;73.30
63317;DHT22;49822;41.468;13.560;2024-02-26T11:24:15;18.00;73.80
63317;DHT22;49822;41.468;13.560;2024-02-26T11:27:16;18.00;72.80
63317;DHT22;49822;41.468;13.560;2024-02-26T11:29:51;18.10;72.40
63317;DHT22;49822;41.468;13.560;2024-02-26T11:32:17;18.20;72.00
63317;DHT22;49822;41.468;13.560;2024-02-26T11:34:44;18.00;71.00
63317;DHT22;49822;41.468;13.560;2024-02-26T11:39:37;18.00;72.40
63317;DHT22;49822;41.468;13.560;2024-02-26T11:42:09;18.30;72.80
63317;DHT22;49822;41.468;13.560;2024-02-26T11:44:35;18.40;70.90
63317;DHT22;49822;41.468;13.560;2024-02-26T11:47:18;18.50;73.40
63317;DHT22;49822;41.468;13.560;2024-02-26T11:49:44;18.40;71.40
63317;DHT22;49822;41.468;13.560;2024-02-26T11:52:12;18.30;70.70
63317;DHT22;49822;41.468;13.560;2024-02-26T11:59:51;17.20;72.00
63317;DHT22;49822;41.468;13.560;2024-02-26T12:02:46;17.00;73.50
63317;DHT22;49822;41.468;13.560;2024-02-26T12:05:20;16.90;75.00
63317;DHT22;49822;41.468;13.560;2024-02-26T12:07:48;16.90;75.50
63317;DHT22;49822;41.468;13.560;2024-02-26T12:10:34;16.90;76.20
63317;DHT22;49822;41.468;13.560;2024-02-26T12:13:17;16.80;76.60
63317;DHT22;49822;41.468;13.560;2024-02-26T12:15:58;16.70;76.80
63317;DHT22;49822;41.468;13.560;2024-02-26T12:18:26;16.50;75.30
63317;DHT22;49822;41.468;13.560;2024-02-26T12:20:59;16.10;73.10
63317;DHT22;49822;41.468;13.560;2024-02-26T12:23:27;15.80;73.70
63317;DHT22;49822;41.468;13.560;2024-02-26T12:26:00;15.40;73.60
63317;DHT22;49822;41.468;13.560;2024-02-26T12:28:31;15.30;74.40
63317;DHT22;49822;41.468;13.560;2024-02-26T12:31:07;15.20;74.70
63317;DHT22;49822;41.468;13.560;2024-02-26T12:33:34;15.10;74.80
63317;DHT22;49822;41.468;13.560;2024-02-26T12:36:00;14.90;74.80
63317;DHT22;49822;41.468;13.560;2024-02-26T12:38:27;14.80;75.50
63317;DHT22;49822;41.468;13.560;2024-02-26T12:40:53;14.90;75.50
63317;DHT22;49822;41.468;13.560;2024-02-26T12:43:20;14.90;75.00
63317;DHT22;49822;41.468;13.560;2024-02-26T12:45:47;14.90;74.70
63317;DHT22;49822;41.468;13.560;2024-02-26T12:48:14;14.80;74.00
63317;DHT22;49822;41.468;13.560;2024-02-26T12:50:45;14.80;73.90
63317;DHT22;49822;41.468;13.560;2024-02-26T12:53:13;14.80;74.40
63317;DHT22;49822;41.468;13.560;2024-02-26T12:55:39;14.80;74.40
63317;DHT22;49822;41.468;13.560;2024-02-26T12:58:06;14.80;73.90
63317;DHT22;49822;41.468;13.560;2024-02-26T13:00:33;14.80;74.10
63317;DHT22;49822;41.468;13.560;2024-02-26T13:03:00;14.90;73.80
63317;DHT22;49822;41.468;13.560;2024-02-26T13:05:26;14.90;74.40
63317;DHT22;49822;41.468;13.560;2024-02-26T13:07:53;14.90;74.50
63317;DHT22;49822;41.468;13.560;2024-02-26T13:10:19;14.80;73.40
63317;DHT22;49822;41.468;13.560;2024-02-26T13:12:47;14.80;72.70
63317;DHT22;49822;41.468;13.560;2024-02-26T13:15:17;14.90;72.30
63317;DHT22;49822;41.468;13.560;2024-02-26T13:17:44;14.80;72.60
63317;DHT22;49822;41.468;13.560;2024-02-26T13:20:11;14.70;72.70
63317;DHT22;49822;41.468;13.560;2024-02-26T13:22:37;14.80;73.10
63317;DHT22;49822;41.468;13.560;2024-02-26T13:25:05;14.70;73.00
63317;DHT22;49822;41.468;13.560;2024-02-26T13:27:35;14.80;73.90
63317;DHT22;49822;41.468;13.560;2024-02-26T13:32:33;14.80;72.60
63317;DHT22;49822;41.468;13.560;2024-02-26T13:35:07;14.70;72.30
63317;DHT22;49822;41.468;13.560;2024-02-26T13:37:35;14.80;72.50
63317;DHT22;49822;41.468;13.560;2024-02-26T13:40:05;14.90;73.40
63317;DHT22;49822;41.468;13.560;2024-02-26T13:42:31;14.90;72.50
63317;DHT22;49822;41.468;13.560;2024-02-26T13:44:57;15.00;71.20
63317;DHT22;49822;41.468;13.560;2024-02-26T13:47:23;15.10;71.20
63317;DHT22;49822;41.468;13.560;2024-02-26T13:49:49;15.10;71.60
63317;DHT22;49822;41.468;13.560;2024-02-26T13:52:17;15.30;71.20
63317;DHT22;49822;41.468;13.560;2024-02-26T13:54:43;15.40;71.70
63317;DHT22;49822;41.468;13.560;2024-02-26T13:57:09;15.40;72.30
63317;DHT22;49822;41.468;13.560;2024-02-26T13:59:35;15.50;71.80
63317;DHT22;49822;41.468;13.560;2024-02-26T14:02:01;15.60;72.10
63317;DHT22;49822;41.468;13.560;2024-02-26T14:04:29;15.70;72.80
63317;DHT22;49822;41.468;13.560;2024-02-26T14:06:55;15.80;74.60
63317;DHT22;49822;41.468;13.560;2024-02-26T14:09:21;15.90;73.10
63317;DHT22;49822;41.468;13.560;2024-02-26T14:11:48;15.90;73.50
63317;DHT22;49822;41.468;13.560;2024-02-26T14:14:15;16.00;73.80
63317;DHT22;49822;41.468;13.560;2024-02-26T14:16:41;16.10;74.60
63317;DHT22;49822;41.468;13.560;2024-02-26T14:19:07;16.10;74.80
63317;DHT22;49822;41.468;13.560;2024-02-26T14:21:33;16.10;73.80
63317;DHT22;49822;41.468;13.560;2024-02-26T14:23:59;16.10;75.00
63317;DHT22;49822;41.468;13.560;2024-02-26T14:26:25;16.10;74.90
63317;DHT22;49822;41.468;13.560;2024-02-26T14:28:52;16.00;75.20
63317;DHT22;49822;41.468;13.560;2024-02-26T14:31:19;15.90;75.40
63317;DHT22;49822;41.468;13.560;2024-02-26T14:33:45;16.00;75.80
63317;DHT22;49822;41.468;13.560;2024-02-26T14:36:11;15.90;75.30
63317;DHT22;49822;41.468;13.560;2024-02-26T14:38:38;15.70;75.30
63317;DHT22;49822;41.468;13.560;2024-02-26T14:41:05;15.60;75.60
63317;DHT22;49822;41.468;13.560;2024-02-26T14:43:31;15.50;75.90
63317;DHT22;49822;41.468;13.560;2024-02-26T14:45:59;15.40;77.10
63317;DHT22;49822;41.468;13.560;2024-02-26T14:48:26;15.30;76.90
63317;DHT22;49822;41.468;13.560;2024-02-26T14:50:53;15.30;77.20
63317;DHT22;49822;41.468;13.560;2024-02-26T14:53:19;15.20;76.90
63317;DHT22;49822;41.468;13.560;2024-02-26T14:55:46;15.30;76.90
63317;DHT22;49822;41.468;13.560;2024-02-26T14:58:12;15.20;76.70
63317;DHT22;49822;41.468;13.560;2024-02-26T15:00:40;15.30;76.90
63317;DHT22;49822;41.468;13.560;2024-02-26T15:03:09;15.30;76.20
63317;DHT22;49822;41.468;13.560;2024-02-26T15:05:35;15.20;72.50
63317;DHT22;49822;41.468;13.560;2024-02-26T15:08:02;15.10;74.40
63317;DHT22;49822;41.468;13.560;2024-02-26T15:10:28;15.10;75.10
63317;DHT22;49822;41.468;13.560;2024-02-26T15:12:55;15.10;74.60
63317;DHT22;49822;41.468;13.560;2024-02-26T15:15:22;15.00;73.90
63317;DHT22;49822;41.468;13.560;2024-02-26T15:17:49;14.90;74.00
63317;DHT22;49822;41.468;13.560;2024-02-26T15:20:15;14.80;74.60
63317;DHT22;49822;41.468;13.560;2024-02-26T15:22:41;14.80;75.80
63317;DHT22;49822;41.468;13.560;2024-02-26T15:25:08;14.80;76.00
63317;DHT22;49822;41.468;13.560;2024-02-26T15:27:34;14.80;75.80
63317;DHT22;49822;41.468;13.560;2024-02-26T15:30:02;14.90;75.40
63317;DHT22;49822;41.468;13.560;2024-02-26T15:32:28;14.80;74.90